Time;durP1;ratioP1;P1;durP2;ratioP2;P2;SDS_P1;SDS_P2;PMS_P1;PMS_P2;Temp;Humidity;BMP_temperature;BMP_pressure;BME280_temperature;BME280_humidity;BME280_pressure;Samples;Min_cycle;Max_cycle;Signal;HPM_P1;HPM_P2
2022/01/26 00:07:21;;;;;;;16.02;7.15;;;;;;;2.40;96.17;100388.05;1698590;83;21143;-72
2022/01/26 00:09:47;;;;;;;13.60;5.97;;;;;;;2.39;96.33;100387.64;1693174;83;21360;-71
2022/01/26 00:12:14;;;;;;;11.77;5.50;;;;;;;2.37;96.33;100375.61;1696206;81;21749;-71
2022/01/26 00:14:43;;;;;;;15.78;5.37;;;;;;;2.34;96.32;100379.06;1704835;81;20977;-71
2022/01/26 00:17:11;;;;;;;15.05;5.78;;;;;;;2.35;96.38;100375.64;1693727;83;21163;-72
2022/01/26 00:19:55;;;;;;;12.37;5.45;;;;;;;2.32;96.42;100376.91;1696850;83;21148;-72
2022/01/26 00:22:38;;;;;;;10.95;4.75;;;;;;;2.33;96.40;100377.35;1694390;83;21138;-72
2022/01/26 00:25:05;;;;;;;12.43;5.20;;;;;;;2.36;96.47;100365.75;1694525;82;21069;-72
2022/01/26 00:30:01;;;;;;;11.45;4.30;;;;;;;2.31;96.24;100367.47;1695198;82;21593;-72
2022/01/26 00:33:07;;;;;;;16.75;5.08;;;;;;;2.30;96.31;100359.33;1695947;82;21178;-72
2022/01/26 00:40:35;;;;;;;8.35;4.47;;;;;;;2.27;96.34;100361.92;1697670;82;21128;-72
2022/01/26 00:43:14;;;;;;;14.55;4.92;;;;;;;2.24;96.22;100359.33;1699999;83;21147;-72
2022/01/26 00:45:35;;;;;;;10.70;4.53;;;;;;;2.20;96.39;100360.20;1693625;82;21235;-72
2022/01/26 00:48:04;;;;;;;10.30;4.30;;;;;;;2.22;96.30;100361.07;1705695;81;21125;-71
2022/01/26 00:50:33;;;;;;;12.23;4.40;;;;;;;2.20;96.27;100355.05;1699218;82;21351;-71
2022/01/26 00:53:01;;;;;;;7.45;4.20;;;;;;;2.20;96.32;100355.05;1694284;82;21125;-72
2022/01/26 00:55:27;;;;;;;9.73;4.40;;;;;;;2.19;96.40;100358.50;1699314;83;21243;-72
2022/01/26 00:57:54;;;;;;;9.50;4.30;;;;;;;2.16;96.43;100357.23;1697505;83;21203;-72
2022/01/26 01:00:25;;;;;;;8.93;4.17;;;;;;;2.16;96.48;100359.37;1707367;82;21089;-72
2022/01/26 01:02:54;;;;;;;15.43;5.25;;;;;;;2.17;96.49;100360.22;1680692;83;21960;-72
2022/01/26 01:05:32;;;;;;;8.15;3.52;;;;;;;2.16;96.47;100357.23;1697697;81;21030;-72
2022/01/26 01:08:01;;;;;;;10.88;4.87;;;;;;;2.15;96.38;100356.78;1696442;82;22031;-71
2022/01/26 01:10:24;;;;;;;6.97;4.35;;;;;;;2.12;96.30;100351.64;1696752;82;21092;-73
2022/01/26 01:12:55;;;;;;;9.85;3.72;;;;;;;2.10;96.19;100353.36;1710058;81;21152;-72
2022/01/26 01:15:20;;;;;;;11.78;5.25;;;;;;;2.09;96.24;100349.08;1684120;82;21135;-72
2022/01/26 01:17:52;;;;;;;8.68;4.05;;;;;;;2.07;96.20;100340.48;1690076;83;21756;-72
2022/01/26 01:31:14;;;;;;;6.30;2.72;;;;;;;1.90;95.82;100328.50;1699176;83;21115;-72
2022/01/26 01:33:39;;;;;;;7.30;2.65;;;;;;;1.84;95.76;100336.25;1690139;82;21236;-72
2022/01/26 01:36:05;;;;;;;8.05;2.67;;;;;;;1.79;95.74;100335.39;1694417;82;21123;-71
2022/01/26 01:38:34;;;;;;;8.70;3.25;;;;;;;1.74;95.78;100329.42;1701568;83;21156;-72
2022/01/26 01:41:00;;;;;;;6.92;2.90;;;;;;;1.72;95.92;100333.70;1671850;83;21195;-72
2022/01/26 01:43:27;;;;;;;6.90;3.60;;;;;;;1.70;95.93;100325.12;1689556;82;21122;-72
2022/01/26 01:45:55;;;;;;;7.62;3.90;;;;;;;1.69;95.83;100328.56;1693701;82;21124;-72
2022/01/26 01:48:28;;;;;;;5.62;3.87;;;;;;;1.66;95.92;100325.99;1698973;82;21064;-73
2022/01/26 01:50:57;;;;;;;8.30;4.40;;;;;;;1.65;95.94;100319.11;1692607;82;21673;-72
2022/01/26 01:53:38;;;;;;;7.33;4.40;;;;;;;1.65;95.99;100319.11;1697791;81;21136;-72
2022/01/26 01:56:02;;;;;;;8.75;3.85;;;;;;;1.65;95.94;100311.39;1706623;83;22064;-72
2022/01/26 01:58:29;;;;;;;11.53;4.20;;;;;;;1.63;95.84;100311.84;1675788;82;21615;-72
2022/01/26 02:00:56;;;;;;;11.03;4.75;;;;;;;1.61;95.85;100317.41;1690873;82;21650;-72
2022/01/26 02:03:25;;;;;;;9.30;5.80;;;;;;;1.59;95.81;100311.41;1695106;82;25113;-72
2022/01/26 02:05:51;;;;;;;10.40;4.17;;;;;;;1.60;95.91;100310.53;1706823;82;21024;-72
2022/01/26 02:08:18;;;;;;;7.37;4.40;;;;;;;1.60;95.90;100304.09;1697573;83;21112;-73
2022/01/26 02:10:46;;;;;;;7.25;4.08;;;;;;;1.58;95.83;100318.27;1702288;83;21184;-72
2022/01/26 02:13:21;;;;;;;11.70;5.30;;;;;;;1.58;95.90;100313.56;1705884;82;21164;-73
2022/01/26 02:15:49;;;;;;;13.53;6.62;;;;;;;1.59;95.91;100303.69;1707185;82;21432;-71
2022/01/26 02:18:29;;;;;;;13.40;6.62;;;;;;;1.58;95.89;100304.55;1692726;82;21179;-71
2022/01/26 03:06:35;;;;;;;7.72;2.95;;;;;;;1.86;95.85;100268.88;1700359;82;21833;-68
2022/01/26 03:09:01;;;;;;;11.35;3.85;;;;;;;1.87;95.87;100266.71;1706856;81;22369;-69
2022/01/26 03:11:27;;;;;;;7.60;3.15;;;;;;;1.91;95.75;100267.14;1709378;82;21145;-69
2022/01/26 03:14:00;;;;;;;8.13;3.10;;;;;;;1.89;95.49;100267.57;1702072;82;21526;-69
2022/01/26 03:16:30;;;;;;;9.25;3.45;;;;;;;1.88;95.49;100265.02;1754737;79;21166;-69
2022/01/26 03:21:46;;;;;;;10.98;3.15;;;;;;;1.90;95.42;100258.97;1685538;81;21159;-69
2022/01/26 03:34:26;;;;;;;7.25;2.72;;;;;;;1.78;95.26;100251.30;1695698;83;21197;-69
2022/01/26 03:36:57;;;;;;;6.65;2.92;;;;;;;1.79;95.30;100255.58;1692074;83;21187;-69
2022/01/26 03:39:23;;;;;;;12.82;3.10;;;;;;;1.76;95.36;100253.02;1698350;83;21097;-68
2022/01/26 03:41:56;;;;;;;9.10;2.80;;;;;;;1.77;95.51;100254.75;1699993;82;21205;-69
2022/01/26 03:44:19;;;;;;;8.78;2.83;;;;;;;1.78;95.57;100256.45;1702317;83;21641;-69
2022/01/26 03:46:48;;;;;;;10.00;2.83;;;;;;;1.78;95.49;100252.15;1683732;83;21289;-69
2022/01/26 03:49:15;;;;;;;13.45;3.15;;;;;;;1.76;95.36;100247.86;1694276;81;21160;-69
2022/01/26 03:51:42;;;;;;;9.50;3.42;;;;;;;1.76;95.36;100237.56;1704122;81;21230;-69
2022/01/26 03:54:10;;;;;;;16.57;3.62;;;;;;;1.78;95.36;100236.70;1705216;81;21272;-69
2022/01/26 03:56:37;;;;;;;9.23;2.80;;;;;;;1.79;95.24;100232.41;1752974;79;21181;-69
2022/01/26 03:59:05;;;;;;;7.97;2.60;;;;;;;1.79;95.20;100237.55;1766398;79;22033;-69
2022/01/26 04:01:32;;;;;;;11.43;3.85;;;;;;;1.75;95.08;100229.42;1770146;79;21651;-69
2022/01/26 04:03:59;;;;;;;5.95;2.98;;;;;;;1.75;95.07;100238.44;1746928;79;21048;-69
2022/01/26 04:06:26;;;;;;;11.63;3.27;;;;;;;1.72;94.96;100229.44;1762994;79;21068;-69
2022/01/26 04:08:53;;;;;;;11.40;3.30;;;;;;;1.76;95.11;100232.41;1769308;79;21077;-69
2022/01/26 04:11:34;;;;;;;10.78;2.47;;;;;;;1.76;95.02;100227.27;1762430;79;21204;-68
2022/01/26 04:13:58;;;;;;;;;;;;;;;1.78;95.01;100230.70;1764599;79;21042;-69
2022/01/26 04:16:25;;;;;;;7.28;2.92;;;;;;;1.79;94.97;100218.23;1764016;79;20228;-69
2022/01/26 04:18:54;;;;;;;7.25;3.00;;;;;;;1.80;94.95;100221.26;1764904;78;20986;-69
2022/01/26 04:24:13;;;;;;;8.75;3.42;;;;;;;1.84;94.87;100212.65;1759424;79;21222;-69
2022/01/26 04:27:34;;;;;;;7.10;2.52;;;;;;;1.84;94.81;100208.78;1758532;79;21192;-69
2022/01/26 04:29:08;;;;;;;;;;;;;;;1.85;94.79;100206.66;1744559;79;21111;-70
2022/01/26 04:31:31;;;;;;;9.80;4.08;;;;;;;1.83;94.77;100207.08;1758286;79;20228;-70
2022/01/26 04:33:58;;;;;;;11.80;5.12;;;;;;;1.82;94.87;100205.79;1757872;79;21858;-69
2022/01/26 04:36:41;;;;;;;14.13;5.67;;;;;;;1.84;94.91;100205.36;1777190;79;21433;-70
2022/01/26 04:38:59;;;;;;;12.10;4.78;;;;;;;1.85;95.05;100201.50;1757747;79;21524;-69
2022/01/26 04:43:55;;;;;;;13.13;3.95;;;;;;;1.91;94.98;100191.17;1764097;79;21664;-70
2022/01/26 04:46:19;;;;;;;13.85;4.47;;;;;;;1.93;94.92;100184.30;1761763;79;21577;-70
2022/01/26 04:48:45;;;;;;;10.82;3.80;;;;;;;1.93;94.90;100184.30;1761222;79;21057;-70
2022/01/26 04:51:12;;;;;;;7.77;3.50;;;;;;;1.94;94.87;100173.56;1769510;79;21126;-70
2022/01/26 04:53:39;;;;;;;12.20;5.37;;;;;;;1.93;94.85;100176.58;1748432;79;21108;-70
2022/01/26 04:56:06;;;;;;;15.60;5.22;;;;;;;1.93;94.84;100174.00;1748885;79;21000;-70
2022/01/26 04:58:32;;;;;;;6.97;3.37;;;;;;;1.96;94.89;100178.25;1755192;79;21666;-70
2022/01/26 05:00:59;;;;;;;9.68;3.08;;;;;;;1.97;94.80;100175.69;1765251;79;21208;-70
2022/01/26 05:03:25;;;;;;;12.27;3.40;;;;;;;1.97;94.82;100165.39;1767953;79;21093;-70
2022/01/26 05:05:52;;;;;;;17.65;4.70;;;;;;;1.97;94.82;100162.81;1769415;79;21046;-70
2022/01/26 05:08:19;;;;;;;14.30;4.25;;;;;;;1.98;94.79;100161.94;1764903;79;21056;-71
2022/01/26 05:10:45;;;;;;;11.57;4.30;;;;;;;1.99;94.82;100162.81;1765477;79;21164;-70
2022/01/26 05:13:14;;;;;;;13.70;4.08;;;;;;;1.99;94.76;100164.95;1767860;79;21870;-70
2022/01/26 05:15:41;;;;;;;20.35;6.12;;;;;;;1.97;94.65;100165.39;1767449;79;21118;-70
2022/01/26 05:18:08;;;;;;;;;;;;;;;1.93;94.56;100159.84;1771802;79;21083;-70
2022/01/26 05:20:35;;;;;;;13.70;5.30;;;;;;;1.89;94.53;100156.84;1758308;79;20177;-69
2022/01/26 05:23:02;;;;;;;12.68;4.55;;;;;;;1.87;94.51;100154.70;1757652;79;21351;-70
2022/01/26 05:25:28;;;;;;;18.65;6.75;;;;;;;1.86;94.51;100154.28;1757493;79;21082;-71
2022/01/26 05:27:55;;;;;;;13.85;6.70;;;;;;;1.82;94.35;100152.60;1761810;79;21423;-67
2022/01/26 05:30:21;;;;;;;10.70;5.87;;;;;;;1.78;94.27;100145.73;1757045;80;21016;-70
2022/01/26 05:32:48;;;;;;;9.65;4.20;;;;;;;1.75;94.35;100145.75;1759422;79;21063;-70
2022/01/26 05:35:15;;;;;;;5.65;3.70;;;;;;;1.75;94.36;100140.60;1769573;79;21141;-70
2022/01/26 05:37:41;;;;;;;15.23;3.60;;;;;;;1.74;94.42;100144.05;1757929;79;21289;-70
2022/01/26 05:40:09;;;;;;;;;;;;;;;1.72;94.38;100135.47;1765821;79;20982;-70
2022/01/26 05:42:36;;;;;;;5.15;3.00;;;;;;;1.73;94.45;100137.17;1765862;79;20239;-70
2022/01/26 05:45:08;;;;;;;7.28;3.10;;;;;;;1.72;94.46;100135.47;1770628;78;21122;-70
2022/01/26 05:47:34;;;;;;;7.70;3.33;;;;;;;1.71;94.50;100132.45;1770498;79;22329;-69
2022/01/26 05:50:02;;;;;;;6.85;2.85;;;;;;;1.70;94.49;100125.61;1772262;79;21075;-70
2022/01/26 05:52:28;;;;;;;;;;;;;;;1.71;94.54;100128.59;1767003;79;21192;-70
2022/01/26 05:54:55;;;;;;;6.65;2.58;;;;;;;1.72;94.63;100127.75;1763141;79;20693;-70
2022/01/26 05:57:21;;;;;;;7.83;3.35;;;;;;;1.75;94.74;100134.17;1755297;80;20950;-71
2022/01/26 05:59:48;;;;;;;5.08;3.42;;;;;;;1.78;94.82;100131.58;1755046;79;21784;-70
2022/01/26 06:02:31;;;;;;;7.17;4.78;;;;;;;1.80;94.83;100123.42;1757374;79;21234;-70
2022/01/26 06:05:02;;;;;;;5.33;3.80;;;;;;;1.81;94.83;100128.98;1779793;78;21956;-71
2022/01/26 06:07:28;;;;;;;9.50;4.97;;;;;;;1.84;94.85;100132.83;1754644;79;21112;-70
2022/01/26 06:09:55;;;;;;;6.92;4.92;;;;;;;1.83;94.96;100132.41;1757846;79;21795;-71
2022/01/26 06:12:22;;;;;;;6.05;3.83;;;;;;;1.88;94.94;100122.95;1760597;79;21109;-70
2022/01/26 06:14:49;;;;;;;7.67;4.27;;;;;;;1.93;94.99;100119.92;1771757;79;22256;-70
2022/01/26 06:17:15;;;;;;;5.17;3.80;;;;;;;1.96;95.03;100125.05;1765888;79;21061;-70
2022/01/26 06:19:42;;;;;;;5.23;3.87;;;;;;;1.99;95.17;100119.03;1746432;79;21121;-70
2022/01/26 06:22:09;;;;;;;4.73;3.63;;;;;;;2.05;95.29;100115.56;1749996;79;21062;-70
2022/01/26 06:24:35;;;;;;;3.80;3.02;;;;;;;2.09;95.24;100109.52;1755914;79;21402;-70
2022/01/26 06:27:02;;;;;;;4.65;3.67;;;;;;;2.13;95.11;100113.77;1766834;79;22106;-70
2022/01/26 06:29:30;;;;;;;6.87;3.87;;;;;;;2.17;95.17;100118.90;1761371;79;21512;-71
2022/01/26 06:31:57;;;;;;;5.60;2.65;;;;;;;2.15;95.22;100101.73;1767656;79;21604;-71
2022/01/26 06:34:24;;;;;;;3.62;3.15;;;;;;;2.27;95.21;100106.83;1771015;79;21436;-71
2022/01/26 06:36:51;;;;;;;4.07;3.20;;;;;;;2.28;95.10;100105.09;1772298;79;21173;-71
2022/01/26 06:39:28;;;;;;;2.80;2.55;;;;;;;2.29;95.12;100107.64;1752359;80;21628;-69
2022/01/26 06:41:55;;;;;;;5.05;3.70;;;;;;;2.32;95.13;100099.89;1692943;82;21148;-71
2022/01/26 06:44:33;;;;;;;3.72;2.45;;;;;;;2.31;95.07;100103.34;1697313;82;21965;-69
2022/01/26 06:51:54;;;;;;;4.58;2.85;;;;;;;2.38;95.30;100092.13;1758940;79;21198;-71
2022/01/26 06:54:22;;;;;;;4.60;2.98;;;;;;;2.40;95.35;100095.53;1701460;82;21165;-70
2022/01/26 06:56:49;;;;;;;3.22;2.90;;;;;;;2.44;95.54;100097.23;1697240;82;22387;-70
2022/01/26 06:59:15;;;;;;;3.27;2.97;;;;;;;2.49;95.59;100091.17;1758000;79;21070;-70
2022/01/26 07:01:42;;;;;;;4.05;3.30;;;;;;;2.53;95.58;100087.72;1701065;82;21444;-70
2022/01/26 07:04:09;;;;;;;3.40;2.77;;;;;;;2.58;95.62;100089.39;1695013;82;21098;-69
2022/01/26 07:06:36;;;;;;;3.20;2.08;;;;;;;2.62;95.58;100081.18;1710118;82;21071;-69
2022/01/26 07:09:03;;;;;;;2.40;2.20;;;;;;;2.63;95.50;100079.89;1715705;82;21110;-69
2022/01/26 07:11:30;;;;;;;;;;;;;;;2.64;95.47;100088.03;1711169;82;21515;-69
2022/01/26 07:13:59;;;;;;;3.08;2.40;;;;;;;2.67;95.50;100082.00;1708004;82;26856;-70
2022/01/26 07:21:59;;;;;;;3.53;3.13;;;;;;;2.69;95.37;100084.14;1709333;82;21407;-70
2022/01/26 07:24:26;;;;;;;3.47;3.02;;;;;;;2.69;95.37;100075.11;1701040;82;21171;-69
2022/01/26 07:26:54;;;;;;;4.35;3.67;;;;;;;2.72;95.41;100084.11;1693267;82;21148;-70
2022/01/26 07:29:23;;;;;;;3.27;2.98;;;;;;;2.74;95.35;100068.60;1762295;79;22106;-69
2022/01/26 07:31:51;;;;;;;3.87;3.00;;;;;;;2.75;95.33;100073.76;1769013;79;21672;-69
2022/01/26 07:34:21;;;;;;;4.30;3.77;;;;;;;2.74;95.28;100069.45;1763118;79;21081;-70
2022/01/26 07:36:51;;;;;;;3.65;3.30;;;;;;;2.75;95.33;100068.60;1771241;79;21594;-70
2022/01/26 07:39:42;;;;;;;4.40;3.62;;;;;;;2.78;95.41;100070.30;1763474;79;21712;-70
2022/01/26 07:44:03;;;;;;;2.83;2.37;;;;;;;2.87;95.41;100062.45;1827647;75;24234;-67
2022/01/26 07:46:30;;;;;;;3.20;2.90;;;;;;;2.86;95.61;100066.77;1783441;77;21078;-69
2022/01/26 07:49:02;;;;;;;3.80;3.08;;;;;;;2.93;95.68;100064.12;1792527;77;21038;-69
2022/01/26 07:51:30;;;;;;;4.25;2.67;;;;;;;2.97;95.72;100055.46;1786003;77;21062;-69
2022/01/26 07:53:57;;;;;;;;;;;;;;;3.01;95.69;100054.58;1787558;78;21867;-69
2022/01/26 07:56:26;;;;;;;4.00;2.80;;;;;;;3.02;95.62;100051.11;1786524;77;21006;-70
2022/01/26 07:58:53;;;;;;;3.25;2.72;;;;;;;3.03;95.72;100050.27;1787459;78;21148;-69
2022/01/26 08:01:56;;;;;;;4.70;2.95;;;;;;;3.12;95.70;100045.83;1873889;75;23968;-68
2022/01/26 08:04:23;;;;;;;4.53;3.22;;;;;;;3.09;95.64;100051.03;1823557;77;21098;-69
2022/01/26 08:06:50;;;;;;;4.47;2.87;;;;;;;3.12;95.69;100051.44;1834799;76;21494;-69
2022/01/26 08:09:17;;;;;;;3.27;2.55;;;;;;;3.20;95.73;100056.08;1830456;77;21136;-68
2022/01/26 08:11:44;;;;;;;4.28;3.47;;;;;;;3.28;95.43;100046.95;1827012;77;21015;-69
2022/01/26 08:14:11;;;;;;;3.90;2.90;;;;;;;3.33;95.46;100049.90;1827270;77;21061;-70
2022/01/26 08:16:39;;;;;;;7.25;3.55;;;;;;;3.39;95.54;100052.84;1823002;77;21023;-71
2022/01/26 08:19:07;;;;;;;3.72;2.75;;;;;;;3.35;95.77;100050.70;1823681;77;21762;-70
2022/01/26 08:21:33;;;;;;;4.00;2.62;;;;;;;3.43;95.93;100045.90;1829343;77;21140;-70
2022/01/26 08:24:13;;;;;;;3.83;2.57;;;;;;;3.48;95.95;100042.83;1830893;76;21729;-70
2022/01/26 08:26:42;;;;;;;4.08;2.98;;;;;;;3.54;95.87;100042.74;1827723;77;21768;-70
2022/01/26 08:29:17;;;;;;;3.67;2.90;;;;;;;3.56;95.78;100041.00;1822911;77;21911;-69
2022/01/26 08:31:39;;;;;;;3.37;2.52;;;;;;;3.60;95.83;100045.23;1830120;77;21064;-69
2022/01/26 08:34:05;;;;;;;62.20;6.60;;;;;;;3.60;95.87;100049.11;1830693;77;21641;-70
2022/01/26 08:36:32;;;;;;;101.58;11.70;;;;;;;3.59;95.77;100049.55;1825385;77;21012;-69
2022/01/26 08:38:59;;;;;;;135.73;13.30;;;;;;;3.60;95.82;100055.56;1827096;77;21038;-69
2022/01/26 08:41:25;;;;;;;22.22;4.65;;;;;;;3.61;95.79;100049.52;1828664;77;21382;-69
2022/01/26 08:43:52;;;;;;;5.70;3.77;;;;;;;3.63;95.89;100049.06;1829103;77;20983;-69
2022/01/26 08:46:20;;;;;;;3.70;2.52;;;;;;;3.62;95.87;100046.08;1829771;76;21061;-69
2022/01/26 08:48:48;;;;;;;3.25;2.20;;;;;;;3.63;95.96;100047.77;1826298;77;21640;-69
2022/01/26 08:51:15;;;;;;;3.92;2.37;;;;;;;3.63;95.90;100045.19;1843324;76;21070;-69
2022/01/26 08:53:42;;;;;;;2.52;2.20;;;;;;;3.65;96.00;100047.32;1828193;77;21350;-83
2022/01/26 08:56:09;;;;;;;3.40;2.30;;;;;;;3.69;96.08;100042.52;1834524;76;22068;-83
2022/01/26 08:58:36;;;;;;;2.83;2.47;;;;;;;3.71;96.04;100045.94;1837350;77;21132;-83
2022/01/26 09:01:03;;;;;;;3.72;2.60;;;;;;;3.75;96.14;100045.03;1820111;77;22348;-69
2022/01/26 09:03:35;;;;;;;3.40;2.70;;;;;;;3.83;96.24;100042.77;1813251;77;21050;-69
2022/01/26 09:05:59;;;;;;;3.58;2.50;;;;;;;3.88;96.26;100037.09;1813032;77;21055;-69
2022/01/26 09:08:26;;;;;;;3.53;2.50;;;;;;;3.95;96.32;100034.81;1811347;77;21066;-69
2022/01/26 09:10:58;;;;;;;3.08;1.85;;;;;;;4.04;96.38;100037.28;1808506;77;21078;-69
2022/01/26 09:13:21;;;;;;;2.98;2.10;;;;;;;4.10;96.35;100037.19;1811190;77;20983;-70
2022/01/26 09:15:48;;;;;;;2.40;1.93;;;;;;;4.17;96.34;100032.34;1811142;77;20999;-69
2022/01/26 09:18:20;;;;;;;3.02;1.92;;;;;;;4.21;96.23;100036.57;1810959;78;21133;-69
2022/01/26 09:20:44;;;;;;;2.35;2.00;;;;;;;4.26;96.17;100034.77;1811701;77;21229;-69
2022/01/26 09:23:11;;;;;;;4.60;1.85;;;;;;;4.28;96.11;100036.47;1812972;78;20928;-69
2022/01/26 09:25:38;;;;;;;2.15;1.50;;;;;;;4.31;96.11;100026.07;1808948;78;21508;-69
2022/01/26 09:28:05;;;;;;;1.95;1.65;;;;;;;4.35;96.15;100032.91;1811081;78;21719;-69
2022/01/26 09:30:34;;;;;;;1.65;1.30;;;;;;;4.37;96.16;100025.95;1811390;77;21209;-69
2022/01/26 09:33:01;;;;;;;1.47;1.20;;;;;;;4.44;96.20;100020.66;1812575;77;22277;-69
2022/01/26 09:35:28;;;;;;;2.00;1.60;;;;;;;4.46;96.19;100018.07;1811597;77;21122;-69
2022/01/26 09:37:55;;;;;;;2.27;1.75;;;;;;;4.53;96.02;100017.06;1809500;77;21051;-69
2022/01/26 09:40:23;;;;;;;1.87;1.40;;;;;;;4.52;96.27;100017.95;1811821;77;21443;-68
2022/01/26 09:42:51;;;;;;;0.95;0.88;;;;;;;4.56;96.18;100015.71;1812412;77;22366;-69
2022/01/26 09:45:19;;;;;;;1.35;1.15;;;;;;;4.56;96.13;100009.69;1811407;78;21169;-69
2022/01/26 09:47:46;;;;;;;1.80;1.07;;;;;;;4.52;96.18;100007.61;1806226;77;21018;-70
2022/01/26 09:50:14;;;;;;;2.10;1.40;;;;;;;4.52;96.25;100002.44;1811450;77;21245;-69
2022/01/26 09:52:46;;;;;;;3.08;1.20;;;;;;;4.53;96.04;100003.28;1808358;78;21444;-68
2022/01/26 09:55:10;;;;;;;1.40;1.10;;;;;;;4.47;96.08;100006.83;1810803;77;21239;-69
2022/01/26 09:57:40;;;;;;;2.08;1.87;;;;;;;4.47;96.16;100005.54;1812940;77;21139;-69
2022/01/26 10:00:08;;;;;;;1.37;1.05;;;;;;;4.48;96.14;100000.77;1811735;78;21367;-69
2022/01/26 10:02:35;;;;;;;1.50;1.15;;;;;;;4.49;96.21;99992.16;1824516;76;21318;-69
2022/01/26 10:05:07;;;;;;;1.70;1.27;;;;;;;4.47;96.05;99986.15;1814078;77;21013;-69
2022/01/26 10:10:32;;;;;;;2.50;1.47;;;;;;;4.42;96.19;99993.13;1828270;77;21641;-69
2022/01/26 10:15:37;;;;;;;1.25;1.15;;;;;;;4.38;96.20;99979.86;1821613;77;20974;-69
2022/01/26 10:18:13;;;;;;;1.95;1.20;;;;;;;4.35;96.16;99965.70;1826892;76;21070;-69
2022/01/26 10:20:46;;;;;;;1.80;1.50;;;;;;;4.33;96.25;99981.67;1822751;77;21061;-69
2022/01/26 10:23:19;;;;;;;2.35;1.45;;;;;;;4.31;96.18;99982.12;1823544;77;21287;-70
2022/01/26 10:26:08;;;;;;;2.67;1.27;;;;;;;4.31;96.31;99979.54;1763579;79;20982;-69
2022/01/26 10:28:44;;;;;;;1.10;0.90;;;;;;;4.32;96.28;99977.39;1765285;79;21709;-70
2022/01/26 10:31:25;;;;;;;1.63;1.23;;;;;;;4.29;96.31;99978.73;1757872;80;21576;-69
2022/01/26 10:34:01;;;;;;;1.77;1.32;;;;;;;4.28;96.24;99984.77;1798020;79;21238;-70
2022/01/26 10:37:00;;;;;;;2.00;1.10;;;;;;;4.26;96.31;99975.31;1796498;78;22367;-70
2022/01/26 10:39:34;;;;;;;1.72;1.27;;;;;;;4.27;96.23;99976.16;1665029;85;21190;-70
2022/01/26 10:42:05;;;;;;;2.35;1.37;;;;;;;4.22;96.19;99981.84;1660138;85;21695;-70
2022/01/26 10:44:48;;;;;;;3.55;1.60;;;;;;;4.20;96.22;99979.30;1697672;83;21157;-70
2022/01/26 10:47:10;;;;;;;2.85;2.02;;;;;;;4.17;96.19;99970.31;1686827;83;22151;-69
2022/01/26 10:54:49;;;;;;;4.67;2.77;;;;;;;4.17;96.26;99981.95;1694265;82;21163;-70
2022/01/26 10:57:17;;;;;;;5.97;3.30;;;;;;;4.21;96.20;99979.70;1694742;83;21096;-70
2022/01/26 10:59:49;;;;;;;6.75;2.98;;;;;;;4.17;96.00;99967.73;1698490;83;21130;-70
2022/01/26 11:02:49;;;;;;;6.78;2.95;;;;;;;4.20;96.01;99958.63;1770734;77;28441;-70
2022/01/26 11:05:16;;;;;;;5.45;2.75;;;;;;;4.19;95.77;99959.48;1754475;80;22035;-70
2022/01/26 11:07:45;;;;;;;3.57;2.90;;;;;;;4.20;95.49;99959.92;1758599;80;22367;-70
2022/01/26 11:10:12;;;;;;;4.20;2.67;;;;;;;4.18;95.60;99971.16;1753217;80;21113;-69
2022/01/26 11:12:42;;;;;;;3.92;2.15;;;;;;;4.13;95.48;99955.72;1727438;81;21654;-69
2022/01/26 11:15:14;;;;;;;3.67;2.47;;;;;;;4.09;95.43;99957.96;1729437;80;22029;-68
2022/01/26 11:17:46;;;;;;;3.98;2.10;;;;;;;4.05;95.47;99955.00;1753808;80;21179;-68
2022/01/26 11:20:31;;;;;;;3.22;2.37;;;;;;;4.01;95.54;99949.04;1755091;80;21855;-69
2022/01/26 11:23:02;;;;;;;4.83;2.20;;;;;;;3.96;95.53;99952.58;1757178;80;21101;-69
2022/01/26 11:25:43;;;;;;;5.33;2.35;;;;;;;3.95;95.59;99949.56;1755514;80;21087;-68
2022/01/26 11:28:21;;;;;;;6.70;3.33;;;;;;;3.94;95.54;99946.58;1753725;80;21104;-69
2022/01/26 11:30:49;;;;;;;4.05;2.12;;;;;;;3.93;95.65;99937.13;1759717;80;20996;-69
2022/01/26 11:33:25;;;;;;;5.33;2.35;;;;;;;3.90;95.50;99923.83;1760125;80;21059;-69
2022/01/26 11:35:56;;;;;;;2.67;1.87;;;;;;;3.89;95.48;99920.81;1760791;80;20943;-68
2022/01/26 11:47:30;;;;;;;2.90;1.77;;;;;;;3.91;95.51;99924.67;1761313;79;21093;-69
2022/01/26 11:50:09;;;;;;;5.58;1.82;;;;;;;3.88;95.38;99922.14;1717927;81;21609;-69
2022/01/26 11:52:38;;;;;;;2.65;1.72;;;;;;;3.87;95.28;99916.58;1710493;83;21046;-68
2022/01/26 11:55:31;;;;;;;4.40;2.15;;;;;;;3.78;95.21;99902.94;1713091;83;21066;-70
2022/01/26 11:57:55;;;;;;;5.25;1.75;;;;;;;3.76;95.19;99905.97;1626845;86;21246;-71
2022/01/26 12:00:43;;;;;;;2.30;1.67;;;;;;;3.71;95.47;99893.56;1625432;86;21527;-68
2022/01/26 12:03:09;;;;;;;1.77;1.55;;;;;;;3.74;95.35;99887.06;1625886;86;21228;-69
2022/01/26 12:05:45;;;;;;;2.40;1.70;;;;;;;3.71;95.25;99883.23;1627106;86;21125;-68
2022/01/26 12:08:12;;;;;;;4.25;1.70;;;;;;;3.72;95.30;99881.50;1626514;86;21143;-69
2022/01/26 12:10:39;;;;;;;3.75;2.10;;;;;;;3.66;95.29;99868.25;1626657;86;21563;-69
2022/01/26 12:13:16;;;;;;;4.40;2.25;;;;;;;3.67;95.54;99871.27;1625815;86;21597;-69
2022/01/26 12:15:52;;;;;;;1.57;1.32;;;;;;;3.76;95.53;99867.67;1626480;86;21225;-69
2022/01/26 12:34:51;;;;;;;1.62;0.93;;;;;;;3.69;95.42;99830.75;1821429;76;23248;-68
2022/01/26 12:42:57;;;;;;;3.58;1.75;;;;;;;3.59;95.32;99803.41;1810101;78;20993;-68
2022/01/26 12:45:11;;;;;;;2.22;1.40;;;;;;;3.58;95.35;99827.50;1810337;78;21084;-68
2022/01/26 12:47:37;;;;;;;3.20;1.67;;;;;;;3.56;95.30;99824.13;1809642;78;22132;-68
2022/01/26 12:50:05;;;;;;;2.87;1.40;;;;;;;3.55;95.33;99812.07;1801221;78;21064;-67
2022/01/26 12:52:31;;;;;;;;;;;;;;;3.54;95.42;99816.39;1815088;78;21217;-68
2022/01/26 12:54:58;;;;;;;2.37;1.32;;;;;;;3.52;95.42;99809.55;1801617;78;20265;-67
2022/01/26 12:57:25;;;;;;;2.83;2.00;;;;;;;3.51;95.46;99798.38;1809600;78;21015;-68
2022/01/26 13:00:04;;;;;;;5.75;3.42;;;;;;;3.56;95.61;99803.47;1809011;78;22649;-68
2022/01/26 13:02:31;;;;;;;4.97;2.67;;;;;;;3.60;95.57;99805.10;1809479;78;21058;-68
2022/01/26 13:05:03;;;;;;;3.20;2.10;;;;;;;3.57;95.48;99812.91;1808200;78;21093;-68
2022/01/26 13:07:30;;;;;;;3.60;2.33;;;;;;;3.45;95.52;99775.25;1804339;78;21005;-68
2022/01/26 13:09:57;;;;;;;2.60;1.60;;;;;;;3.51;95.52;99794.95;1806244;78;21206;-68
2022/01/26 13:12:33;;;;;;;2.67;1.37;;;;;;;3.49;95.55;99797.54;1804109;78;21041;-68
2022/01/26 13:15:10;;;;;;;1.47;1.20;;;;;;;3.46;95.46;99789.00;1805675;78;21025;-68
2022/01/26 13:17:38;;;;;;;3.87;1.67;;;;;;;3.42;95.49;99775.31;1802701;78;21280;-67
2022/01/26 13:20:25;;;;;;;3.40;1.45;;;;;;;3.43;95.40;99781.31;1803255;78;21148;-68
2022/01/26 13:34:10;;;;;;;2.55;1.72;;;;;;;3.36;95.25;99755.62;1805345;78;21032;-68
2022/01/26 13:36:32;;;;;;;4.67;2.00;;;;;;;3.31;95.23;99754.84;1792830;78;20926;-68
2022/01/26 13:47:21;;;;;;;2.60;1.87;;;;;;;3.21;95.28;99742.96;1682241;83;21200;-69
2022/01/26 13:49:46;;;;;;;3.58;1.72;;;;;;;3.18;95.24;99745.59;1691888;83;21221;-68
2022/01/26 13:55:20;;;;;;;4.47;2.27;;;;;;;3.08;95.37;99736.30;1692918;83;21501;-67
2022/01/26 14:00:20;;;;;;;3.65;2.50;;;;;;;3.09;95.31;99738.02;1647132;85;21614;-69
2022/01/26 14:02:57;;;;;;;2.87;1.80;;;;;;;3.09;95.25;99725.13;1643957;85;21011;-69
2022/01/26 14:05:20;;;;;;;2.80;1.95;;;;;;;3.08;95.26;99720.81;1641596;85;21762;-69
2022/01/26 14:07:47;;;;;;;3.77;1.90;;;;;;;3.05;95.19;99724.73;1657455;85;21601;-69
2022/01/26 14:10:14;;;;;;;3.12;2.05;;;;;;;3.01;95.16;99714.08;1656331;85;21219;-69
2022/01/26 14:12:46;;;;;;;2.72;2.15;;;;;;;2.97;95.16;99710.70;1625819;86;21131;-69
2022/01/26 14:15:09;;;;;;;4.08;2.27;;;;;;;2.96;95.17;99714.58;1655829;85;21077;-69
2022/01/26 14:20:14;;;;;;;2.87;2.40;;;;;;;2.97;95.20;99714.98;1831372;76;22655;-68
2022/01/26 14:25:29;;;;;;;3.12;2.10;;;;;;;2.92;95.24;99724.11;1819505;77;21970;-69
2022/01/26 14:28:03;;;;;;;3.20;1.87;;;;;;;2.89;95.20;99708.23;1818094;77;20945;-70
2022/01/26 14:30:48;;;;;;;3.52;2.30;;;;;;;2.90;95.23;99719.41;1816468;78;21155;-69
2022/01/26 14:50:51;;;;;;;3.50;2.85;;;;;;;2.89;95.23;99704.37;1820146;77;21392;-69
2022/01/26 15:35:00;;;;;;;2.08;1.30;;;;;;;2.57;95.43;99663.61;1729939;81;21063;-71
2022/01/26 15:52:57;;;;;;;1.98;1.27;;;;;;;2.53;95.06;99659.84;1710455;82;21046;-70
2022/01/26 15:58:30;;;;;;;3.02;2.02;;;;;;;2.51;95.28;99662.88;1735967;81;21826;-70